Historique des mesures à Cassis (13260), France
Quotidien Résumé Mars 14, 2021 Unités:  Métrique/US    US   Métrique
Quotidien Hebdomadaire Mensuel Annuel
  Maximum: Minimum: Moyenne:
Température: 85.3 °F /  29.6 °C 72 °F /  22.2 °C 76.6 °F /  24.8 °C
Point de rosée: 72 °F /  22.2 °C 64.2 °F /  17.9 °C 68.4 °F /  20.2 °C
Humidité: 84% 62% 76%
Vitesse du vent: 7.4mph /  11.9km/h - 1.6mph /  2.5km/h
Rafales: 8.9mph /  14.4km/h - -
Vent- - SE
Pression: 30 in /  1014.5 hPa 29.9 in /  1012.2 hPa -
Précipitations: 0.06 in /  1.5 mm    
Historical Graphs
 
 
Mesures pour : Mars 14, 2021
Heure Temperature Point de rosée Pression Vent Vitesse du vent Rafales Humidité Pluie (par heure)
00:11 72.5 °F /  22.5 °C 67.1 °F /  19.5 °C 30in /  1014.4hPa Calm   0.7mph /  1.1km/h 83% 0in /  0.0mm
01:11 72.5 °F /  22.5 °C 67.1 °F /  19.5 °C 29.9in /  1014.0hPa Calm   1.6mph /  2.5km/h 83% 0in /  0.0mm
02:11 72.3 °F /  22.4 °C 66.9 °F /  19.4 °C 29.9in /  1013.7hPa Calm     83% 0in /  0.0mm
03:11 72 °F /  22.2 °C 66.9 °F /  19.4 °C 29.9in /  1013.3hPa Calm   2.5mph /  4km/h 84% 0in /  0.0mm
04:11 72.5 °F /  22.5 °C 67.5 °F /  19.7 °C 29.9in /  1012.9hPa Calm   3.1mph /  5km/h 84% 0in /  0.0mm
05:11 72.3 °F /  22.4 °C 66.9 °F /  19.4 °C 29.9in /  1012.7hPa Calm   1.1mph /  1.8km/h 83% 0in /  0.0mm
06:11 72.5 °F /  22.5 °C 67.1 °F /  19.5 °C 29.9in /  1012.2hPa Calm   2.5mph /  4km/h 83% 0in /  0.0mm
07:11 72.9 °F /  22.7 °C 67.1 °F /  19.5 °C 29.9in /  1012.4hPa Calm   2.5mph /  4km/h 82% 0in /  0.0mm
08:11 73.2 °F /  22.9 °C 67.8 °F /  19.9 °C 29.9in /  1012.8hPa ESE 3.8mph /  6.1km/h 4.5mph /  7.2km/h 83% 0in /  0.0mm
09:11 73.9 °F /  23.3 °C 68.5 °F /  20.3 °C 29.9in /  1012.9hPa SE 3.1mph /  5km/h 3.1mph /  5km/h 83% 0in /  0.0mm
10:11 75.7 °F /  24.3 °C 69.3 °F /  20.7 °C 29.9in /  1013.9hPa SE 6.5mph /  10.4km/h 6.5mph /  10.4km/h 80% 0in /  0.0mm
11:11 75.4 °F /  24.1 °C 68.9 °F /  20.5 °C 30in /  1014.2hPa SE 0.9mph /  1.4km/h 2.2mph /  3.6km/h 80% 0in /  0.0mm
12:11 77.5 °F /  25.3 °C 70.2 °F /  21.2 °C 30in /  1014.5hPa ESE 7.4mph /  11.9km/h 7.4mph /  11.9km/h 78% 0in /  0.0mm
13:11 83.1 °F /  28.4 °C 72 °F /  22.2 °C 29.9in /  1014.0hPa SE 5.2mph /  8.3km/h 5.2mph /  8.3km/h 69% 0in /  0.0mm
14:11 85.3 °F /  29.6 °C 71.2 °F /  21.8 °C 29.9in /  1014.1hPa Calm   5.2mph /  8.3km/h 63% 0in /  0.0mm
15:11 84.9 °F /  29.4 °C 70.5 °F /  21.4 °C 29.9in /  1013.5hPa Calm   8.9mph /  14.4km/h 62% 0in /  0.0mm
16:11 83.5 °F /  28.6 °C 70.9 °F /  21.6 °C 29.9in /  1013.3hPa SW 2.7mph /  4.3km/h 5.8mph /  9.4km/h 66% 0in /  0.0mm
17:11 83.1 °F /  28.4 °C 70.2 °F /  21.2 °C 29.9in /  1013.2hPa SSE 2mph /  3.2km/h 6mph /  9.7km/h 65% 0in /  0.0mm
18:11 82 °F /  27.8 °C 70 °F /  21.1 °C 29.9in /  1013.2hPa Calm   4.5mph /  7.2km/h 67% 0in /  0.0mm
19:11 78.8 °F /  26 °C 68.5 °F /  20.3 °C 29.9in /  1013.3hPa Calm   5.6mph /  9km/h 71% 0in /  0.0mm
20:11 76.8 °F /  24.9 °C 68.4 °F /  20.2 °C 29.9in /  1013.5hPa Calm   7.8mph /  12.6km/h 75% 0.06in /  1.5mm
21:11 75.7 °F /  24.3 °C 67.3 °F /  19.6 °C 29.9in /  1013.4hPa SE 4.5mph /  7.2km/h 6.5mph /  10.4km/h 75% 0in /  0.0mm
22:11 75 °F /  23.9 °C 65.3 °F /  18.5 °C 29.9in /  1012.9hPa Calm   4.5mph /  7.2km/h 72% 0in /  0.0mm
23:11 75 °F /  23.9 °C 64.2 °F /  17.9 °C 29.9in /  1012.8hPa ENE 1.6mph /  2.5km/h 5.8mph /  9.4km/h 69% 0in /  0.0mm
Observations météo à CASSIS
WU-History script by Weather Underground - 2 mb